sensor_id;sensor_type;location;lat;lon;timestamp;P1;P2;P0
69224;PMS1003;56333;51.306;17.056;2023-02-26T00:00:21;6.90;4.00;
69224;PMS1003;56333;51.306;17.056;2023-02-26T00:02:10;7.20;4.20;
69224;PMS1003;56333;51.306;17.056;2023-02-26T00:03:39;8.90;4.40;
69224;PMS1003;56333;51.306;17.056;2023-02-26T00:05:11;6.90;3.70;
69224;PMS1003;56333;51.306;17.056;2023-02-26T00:06:42;5.80;3.60;
69224;PMS1003;56333;51.306;17.056;2023-02-26T00:08:20;7.10;3.80;
69224;PMS1003;56333;51.306;17.056;2023-02-26T00:09:50;7.80;3.90;
69224;PMS1003;56333;51.306;17.056;2023-02-26T00:11:20;6.90;3.20;
69224;PMS1003;56333;51.306;17.056;2023-02-26T00:12:51;5.20;3.10;
69224;PMS1003;56333;51.306;17.056;2023-02-26T00:14:20;5.70;2.90;
69224;PMS1003;56333;51.306;17.056;2023-02-26T00:15:50;5.50;3.30;
69224;PMS1003;56333;51.306;17.056;2023-02-26T00:17:34;5.50;3.40;
69224;PMS1003;56333;51.306;17.056;2023-02-26T00:19:10;6.80;4.10;
69224;PMS1003;56333;51.306;17.056;2023-02-26T00:20:41;6.80;3.50;
69224;PMS1003;56333;51.306;17.056;2023-02-26T00:22:14;9.40;5.10;
69224;PMS1003;56333;51.306;17.056;2023-02-26T00:23:45;7.50;3.20;
69224;PMS1003;56333;51.306;17.056;2023-02-26T00:25:15;7.40;3.20;
69224;PMS1003;56333;51.306;17.056;2023-02-26T00:26:44;6.30;3.70;
69224;PMS1003;56333;51.306;17.056;2023-02-26T00:28:15;6.00;3.80;
69224;PMS1003;56333;51.306;17.056;2023-02-26T00:29:46;5.50;3.20;
69224;PMS1003;56333;51.306;17.056;2023-02-26T00:31:18;6.00;3.90;
69224;PMS1003;56333;51.306;17.056;2023-02-26T00:32:51;6.20;3.60;
69224;PMS1003;56333;51.306;17.056;2023-02-26T00:34:22;6.90;3.50;
69224;PMS1003;56333;51.306;17.056;2023-02-26T00:35:56;5.90;3.70;
69224;PMS1003;56333;51.306;17.056;2023-02-26T00:39:43;8.60;3.50;
69224;PMS1003;56333;51.306;17.056;2023-02-26T00:41:19;5.80;3.00;
69224;PMS1003;56333;51.306;17.056;2023-02-26T00:42:51;5.80;3.30;
69224;PMS1003;56333;51.306;17.056;2023-02-26T00:44:22;6.10;3.50;
69224;PMS1003;56333;51.306;17.056;2023-02-26T00:45:58;6.00;3.20;
69224;PMS1003;56333;51.306;17.056;2023-02-26T00:47:38;5.90;2.90;
69224;PMS1003;56333;51.306;17.056;2023-02-26T00:49:20;5.40;3.00;
69224;PMS1003;56333;51.306;17.056;2023-02-26T00:50:58;6.30;3.20;
69224;PMS1003;56333;51.306;17.056;2023-02-26T00:52:41;4.50;2.70;
69224;PMS1003;56333;51.306;17.056;2023-02-26T00:54:19;5.80;2.90;
69224;PMS1003;56333;51.306;17.056;2023-02-26T00:55:51;7.60;3.00;
69224;PMS1003;56333;51.306;17.056;2023-02-26T00:57:24;4.60;2.70;
69224;PMS1003;56333;51.306;17.056;2023-02-26T00:58:56;6.60;2.50;
69224;PMS1003;56333;51.306;17.056;2023-02-26T01:00:26;6.70;2.90;
69224;PMS1003;56333;51.306;17.056;2023-02-26T01:01:56;5.50;3.00;
69224;PMS1003;56333;51.306;17.056;2023-02-26T01:03:26;7.80;3.30;
69224;PMS1003;56333;51.306;17.056;2023-02-26T01:04:56;6.20;2.90;
69224;PMS1003;56333;51.306;17.056;2023-02-26T01:06:29;4.40;2.30;
69224;PMS1003;56333;51.306;17.056;2023-02-26T01:08:04;6.80;2.70;
69224;PMS1003;56333;51.306;17.056;2023-02-26T01:09:39;7.50;3.80;
69224;PMS1003;56333;51.306;17.056;2023-02-26T01:11:10;5.80;2.80;
69224;PMS1003;56333;51.306;17.056;2023-02-26T01:14:09;5.50;2.50;
69224;PMS1003;56333;51.306;17.056;2023-02-26T01:15:45;5.40;2.80;
69224;PMS1003;56333;51.306;17.056;2023-02-26T01:17:22;4.90;2.60;
69224;PMS1003;56333;51.306;17.056;2023-02-26T01:19:00;6.50;3.20;
69224;PMS1003;56333;51.306;17.056;2023-02-26T01:20:39;7.00;2.80;
69224;PMS1003;56333;51.306;17.056;2023-02-26T01:22:16;5.80;3.00;
69224;PMS1003;56333;51.306;17.056;2023-02-26T01:23:51;6.00;3.00;
69224;PMS1003;56333;51.306;17.056;2023-02-26T01:25:28;6.90;2.70;
69224;PMS1003;56333;51.306;17.056;2023-02-26T01:27:02;7.40;3.00;
69224;PMS1003;56333;51.306;17.056;2023-02-26T01:28:33;5.30;2.50;
69224;PMS1003;56333;51.306;17.056;2023-02-26T01:30:05;6.80;2.50;
69224;PMS1003;56333;51.306;17.056;2023-02-26T01:31:45;6.60;2.80;
69224;PMS1003;56333;51.306;17.056;2023-02-26T01:33:27;5.00;2.70;
69224;PMS1003;56333;51.306;17.056;2023-02-26T01:35:04;5.80;2.60;
69224;PMS1003;56333;51.306;17.056;2023-02-26T01:36:42;6.60;3.00;
69224;PMS1003;56333;51.306;17.056;2023-02-26T01:38:26;7.00;3.10;
69224;PMS1003;56333;51.306;17.056;2023-02-26T01:40:42;5.20;2.70;
69224;PMS1003;56333;51.306;17.056;2023-02-26T01:42:23;6.80;2.80;
69224;PMS1003;56333;51.306;17.056;2023-02-26T01:44:02;6.60;2.70;
69224;PMS1003;56333;51.306;17.056;2023-02-26T01:45:38;6.00;2.60;
69224;PMS1003;56333;51.306;17.056;2023-02-26T01:47:22;6.20;2.70;
69224;PMS1003;56333;51.306;17.056;2023-02-26T01:48:58;5.70;3.30;
69224;PMS1003;56333;51.306;17.056;2023-02-26T01:51:59;6.50;2.90;
69224;PMS1003;56333;51.306;17.056;2023-02-26T01:53:29;8.20;4.00;
69224;PMS1003;56333;51.306;17.056;2023-02-26T01:54:58;6.10;3.10;
69224;PMS1003;56333;51.306;17.056;2023-02-26T01:56:27;5.70;2.80;
69224;PMS1003;56333;51.306;17.056;2023-02-26T01:57:59;5.40;2.90;
69224;PMS1003;56333;51.306;17.056;2023-02-26T01:59:29;4.90;3.00;
69224;PMS1003;56333;51.306;17.056;2023-02-26T02:00:58;6.00;2.90;
69224;PMS1003;56333;51.306;17.056;2023-02-26T02:02:28;5.00;2.80;
69224;PMS1003;56333;51.306;17.056;2023-02-26T02:03:57;5.10;2.70;
69224;PMS1003;56333;51.306;17.056;2023-02-26T02:05:34;5.20;2.70;
69224;PMS1003;56333;51.306;17.056;2023-02-26T02:07:07;4.40;2.80;
69224;PMS1003;56333;51.306;17.056;2023-02-26T02:08:36;5.10;2.90;
69224;PMS1003;56333;51.306;17.056;2023-02-26T02:10:08;5.80;3.20;
69224;PMS1003;56333;51.306;17.056;2023-02-26T02:11:47;5.70;3.20;
69224;PMS1003;56333;51.306;17.056;2023-02-26T02:13:36;5.30;3.20;
69224;PMS1003;56333;51.306;17.056;2023-02-26T02:15:14;4.20;2.50;
69224;PMS1003;56333;51.306;17.056;2023-02-26T02:16:57;5.20;2.70;
69224;PMS1003;56333;51.306;17.056;2023-02-26T02:18:37;5.10;2.80;
69224;PMS1003;56333;51.306;17.056;2023-02-26T02:23:06;5.20;2.90;
69224;PMS1003;56333;51.306;17.056;2023-02-26T02:24:49;6.20;3.40;
69224;PMS1003;56333;51.306;17.056;2023-02-26T02:26:54;9.40;4.20;
69224;PMS1003;56333;51.306;17.056;2023-02-26T02:28:38;11.40;4.90;
69224;PMS1003;56333;51.306;17.056;2023-02-26T02:30:36;9.30;4.50;
69224;PMS1003;56333;51.306;17.056;2023-02-26T02:32:12;8.20;3.70;
69224;PMS1003;56333;51.306;17.056;2023-02-26T02:33:59;6.50;2.90;
69224;PMS1003;56333;51.306;17.056;2023-02-26T02:35:33;6.00;3.30;
69224;PMS1003;56333;51.306;17.056;2023-02-26T02:37:13;8.80;3.80;
69224;PMS1003;56333;51.306;17.056;2023-02-26T02:38:50;6.90;3.40;
69224;PMS1003;56333;51.306;17.056;2023-02-26T02:40:24;7.50;3.70;
69224;PMS1003;56333;51.306;17.056;2023-02-26T02:42:02;5.70;3.10;
69224;PMS1003;56333;51.306;17.056;2023-02-26T02:43:36;5.40;2.80;
69224;PMS1003;56333;51.306;17.056;2023-02-26T02:45:12;4.10;2.50;
69224;PMS1003;56333;51.306;17.056;2023-02-26T02:46:46;5.20;2.90;
69224;PMS1003;56333;51.306;17.056;2023-02-26T02:48:23;3.60;2.30;
69224;PMS1003;56333;51.306;17.056;2023-02-26T02:50:00;8.60;2.40;
69224;PMS1003;56333;51.306;17.056;2023-02-26T02:51:36;5.50;2.90;
69224;PMS1003;56333;51.306;17.056;2023-02-26T02:53:12;6.90;3.60;
69224;PMS1003;56333;51.306;17.056;2023-02-26T02:54:48;5.40;2.90;
69224;PMS1003;56333;51.306;17.056;2023-02-26T02:56:22;5.20;2.80;
69224;PMS1003;56333;51.306;17.056;2023-02-26T02:57:54;6.00;2.80;
69224;PMS1003;56333;51.306;17.056;2023-02-26T02:59:32;6.60;2.70;
69224;PMS1003;56333;51.306;17.056;2023-02-26T03:01:07;4.80;2.70;
69224;PMS1003;56333;51.306;17.056;2023-02-26T03:02:42;5.00;2.50;
69224;PMS1003;56333;51.306;17.056;2023-02-26T03:04:16;6.10;2.60;
69224;PMS1003;56333;51.306;17.056;2023-02-26T03:05:46;4.00;2.40;
69224;PMS1003;56333;51.306;17.056;2023-02-26T03:07:15;5.20;2.90;
69224;PMS1003;56333;51.306;17.056;2023-02-26T03:08:45;5.50;2.70;
69224;PMS1003;56333;51.306;17.056;2023-02-26T03:11:43;5.50;2.90;
69224;PMS1003;56333;51.306;17.056;2023-02-26T03:13:20;6.10;2.80;
69224;PMS1003;56333;51.306;17.056;2023-02-26T03:14:54;4.90;2.90;
69224;PMS1003;56333;51.306;17.056;2023-02-26T03:16:47;6.30;2.90;
69224;PMS1003;56333;51.306;17.056;2023-02-26T03:18:33;5.30;2.70;
69224;PMS1003;56333;51.306;17.056;2023-02-26T03:20:20;4.70;2.50;
69224;PMS1003;56333;51.306;17.056;2023-02-26T03:22:00;7.10;2.80;
69224;PMS1003;56333;51.306;17.056;2023-02-26T03:23:52;4.50;2.50;
69224;PMS1003;56333;51.306;17.056;2023-02-26T03:25:28;3.70;2.10;
69224;PMS1003;56333;51.306;17.056;2023-02-26T03:27:02;5.30;2.40;
69224;PMS1003;56333;51.306;17.056;2023-02-26T03:28:42;5.40;2.80;
69224;PMS1003;56333;51.306;17.056;2023-02-26T03:30:19;5.30;2.70;
69224;PMS1003;56333;51.306;17.056;2023-02-26T03:31:55;4.60;2.50;
69224;PMS1003;56333;51.306;17.056;2023-02-26T03:33:33;5.40;2.60;
69224;PMS1003;56333;51.306;17.056;2023-02-26T03:35:13;4.10;2.20;
69224;PMS1003;56333;51.306;17.056;2023-02-26T03:36:48;4.70;2.30;
69224;PMS1003;56333;51.306;17.056;2023-02-26T03:38:29;4.60;2.40;
69224;PMS1003;56333;51.306;17.056;2023-02-26T03:40:05;5.40;2.60;
69224;PMS1003;56333;51.306;17.056;2023-02-26T03:41:41;4.20;2.30;
69224;PMS1003;56333;51.306;17.056;2023-02-26T03:43:17;4.80;2.40;
69224;PMS1003;56333;51.306;17.056;2023-02-26T03:44:52;5.60;2.30;
69224;PMS1003;56333;51.306;17.056;2023-02-26T03:46:27;5.60;2.60;
69224;PMS1003;56333;51.306;17.056;2023-02-26T03:47:59;4.90;2.50;
69224;PMS1003;56333;51.306;17.056;2023-02-26T03:49:31;5.20;2.80;
69224;PMS1003;56333;51.306;17.056;2023-02-26T03:51:06;4.40;2.40;
69224;PMS1003;56333;51.306;17.056;2023-02-26T03:52:55;4.60;2.40;
69224;PMS1003;56333;51.306;17.056;2023-02-26T03:54:48;5.10;2.70;
69224;PMS1003;56333;51.306;17.056;2023-02-26T03:56:42;6.40;2.60;
69224;PMS1003;56333;51.306;17.056;2023-02-26T03:58:32;4.10;2.50;
69224;PMS1003;56333;51.306;17.056;2023-02-26T04:00:21;4.00;2.50;
69224;PMS1003;56333;51.306;17.056;2023-02-26T04:01:55;5.00;2.80;
69224;PMS1003;56333;51.306;17.056;2023-02-26T04:03:31;3.90;2.30;
69224;PMS1003;56333;51.306;17.056;2023-02-26T04:05:07;4.90;2.30;
69224;PMS1003;56333;51.306;17.056;2023-02-26T04:06:42;3.30;2.20;
69224;PMS1003;56333;51.306;17.056;2023-02-26T04:08:11;5.00;2.20;
69224;PMS1003;56333;51.306;17.056;2023-02-26T04:09:41;4.20;2.20;
69224;PMS1003;56333;51.306;17.056;2023-02-26T04:11:14;3.70;2.00;
69224;PMS1003;56333;51.306;17.056;2023-02-26T04:12:46;3.70;1.90;
69224;PMS1003;56333;51.306;17.056;2023-02-26T04:14:17;4.10;1.70;
69224;PMS1003;56333;51.306;17.056;2023-02-26T04:15:46;4.60;2.30;
69224;PMS1003;56333;51.306;17.056;2023-02-26T04:17:16;3.80;2.20;
69224;PMS1003;56333;51.306;17.056;2023-02-26T04:18:45;3.30;1.90;
69224;PMS1003;56333;51.306;17.056;2023-02-26T04:20:15;3.60;2.00;
69224;PMS1003;56333;51.306;17.056;2023-02-26T04:21:45;4.30;1.90;
69224;PMS1003;56333;51.306;17.056;2023-02-26T04:23:14;4.30;2.10;
69224;PMS1003;56333;51.306;17.056;2023-02-26T04:24:44;4.50;2.40;
69224;PMS1003;56333;51.306;17.056;2023-02-26T04:26:13;5.00;1.80;
69224;PMS1003;56333;51.306;17.056;2023-02-26T04:27:43;4.10;2.00;
69224;PMS1003;56333;51.306;17.056;2023-02-26T04:29:12;3.60;1.70;
69224;PMS1003;56333;51.306;17.056;2023-02-26T04:30:41;5.60;2.20;
69224;PMS1003;56333;51.306;17.056;2023-02-26T04:32:11;4.30;2.00;
69224;PMS1003;56333;51.306;17.056;2023-02-26T04:33:40;6.20;2.30;
69224;PMS1003;56333;51.306;17.056;2023-02-26T04:35:10;4.10;1.90;
69224;PMS1003;56333;51.306;17.056;2023-02-26T04:36:39;5.00;2.80;
69224;PMS1003;56333;51.306;17.056;2023-02-26T04:38:08;4.60;2.20;
69224;PMS1003;56333;51.306;17.056;2023-02-26T04:39:38;4.20;2.10;
69224;PMS1003;56333;51.306;17.056;2023-02-26T04:41:07;5.90;2.80;
69224;PMS1003;56333;51.306;17.056;2023-02-26T04:42:37;3.70;1.80;
69224;PMS1003;56333;51.306;17.056;2023-02-26T04:44:06;3.00;1.60;
69224;PMS1003;56333;51.306;17.056;2023-02-26T04:45:38;4.40;1.90;
69224;PMS1003;56333;51.306;17.056;2023-02-26T04:47:07;4.00;1.90;
69224;PMS1003;56333;51.306;17.056;2023-02-26T04:48:37;3.30;1.40;
69224;PMS1003;56333;51.306;17.056;2023-02-26T04:50:10;3.90;1.70;
69224;PMS1003;56333;51.306;17.056;2023-02-26T04:51:39;3.80;1.60;
69224;PMS1003;56333;51.306;17.056;2023-02-26T04:53:08;4.20;1.90;
69224;PMS1003;56333;51.306;17.056;2023-02-26T04:54:37;3.60;1.60;
69224;PMS1003;56333;51.306;17.056;2023-02-26T04:56:08;2.80;1.60;
69224;PMS1003;56333;51.306;17.056;2023-02-26T04:57:37;3.70;1.70;
69224;PMS1003;56333;51.306;17.056;2023-02-26T04:59:07;3.10;1.80;
69224;PMS1003;56333;51.306;17.056;2023-02-26T05:00:35;3.80;1.90;
69224;PMS1003;56333;51.306;17.056;2023-02-26T05:02:05;3.70;1.80;
69224;PMS1003;56333;51.306;17.056;2023-02-26T05:03:37;3.50;1.70;
69224;PMS1003;56333;51.306;17.056;2023-02-26T05:05:06;2.60;1.60;
69224;PMS1003;56333;51.306;17.056;2023-02-26T05:06:36;2.50;1.60;
69224;PMS1003;56333;51.306;17.056;2023-02-26T05:08:05;3.10;1.70;
69224;PMS1003;56333;51.306;17.056;2023-02-26T05:09:34;3.50;1.80;
69224;PMS1003;56333;51.306;17.056;2023-02-26T05:11:04;3.80;1.90;
69224;PMS1003;56333;51.306;17.056;2023-02-26T05:12:33;3.00;1.80;
69224;PMS1003;56333;51.306;17.056;2023-02-26T05:14:02;3.20;2.00;
69224;PMS1003;56333;51.306;17.056;2023-02-26T05:15:30;3.80;2.10;
69224;PMS1003;56333;51.306;17.056;2023-02-26T05:16:59;3.90;2.10;
69224;PMS1003;56333;51.306;17.056;2023-02-26T05:18:28;3.80;2.20;
69224;PMS1003;56333;51.306;17.056;2023-02-26T05:19:58;3.60;1.90;
69224;PMS1003;56333;51.306;17.056;2023-02-26T05:21:28;4.80;2.00;
69224;PMS1003;56333;51.306;17.056;2023-02-26T05:22:58;3.70;1.80;
69224;PMS1003;56333;51.306;17.056;2023-02-26T05:24:27;4.80;1.90;
69224;PMS1003;56333;51.306;17.056;2023-02-26T05:25:58;3.20;1.80;
69224;PMS1003;56333;51.306;17.056;2023-02-26T05:27:27;4.00;2.40;
69224;PMS1003;56333;51.306;17.056;2023-02-26T05:28:56;4.40;2.10;
69224;PMS1003;56333;51.306;17.056;2023-02-26T05:30:25;5.90;2.60;
69224;PMS1003;56333;51.306;17.056;2023-02-26T05:31:54;5.50;2.30;
69224;PMS1003;56333;51.306;17.056;2023-02-26T05:33:23;4.60;2.20;
69224;PMS1003;56333;51.306;17.056;2023-02-26T05:34:51;5.60;2.60;
69224;PMS1003;56333;51.306;17.056;2023-02-26T05:36:20;4.50;2.60;
69224;PMS1003;56333;51.306;17.056;2023-02-26T05:37:49;4.90;2.40;
69224;PMS1003;56333;51.306;17.056;2023-02-26T05:39:18;4.60;2.20;
69224;PMS1003;56333;51.306;17.056;2023-02-26T05:40:47;4.20;2.00;
69224;PMS1003;56333;51.306;17.056;2023-02-26T05:42:16;3.90;2.10;
69224;PMS1003;56333;51.306;17.056;2023-02-26T05:43:45;8.10;3.40;
69224;PMS1003;56333;51.306;17.056;2023-02-26T05:45:14;6.30;3.50;
69224;PMS1003;56333;51.306;17.056;2023-02-26T05:46:43;6.30;3.00;
69224;PMS1003;56333;51.306;17.056;2023-02-26T05:48:12;5.60;3.30;
69224;PMS1003;56333;51.306;17.056;2023-02-26T05:49:41;5.20;2.90;
69224;PMS1003;56333;51.306;17.056;2023-02-26T05:51:10;5.20;2.90;
69224;PMS1003;56333;51.306;17.056;2023-02-26T05:52:39;4.70;2.10;
69224;PMS1003;56333;51.306;17.056;2023-02-26T05:54:09;3.60;2.00;
69224;PMS1003;56333;51.306;17.056;2023-02-26T05:55:38;3.90;2.30;
69224;PMS1003;56333;51.306;17.056;2023-02-26T05:57:07;4.50;2.40;
69224;PMS1003;56333;51.306;17.056;2023-02-26T05:58:36;4.60;2.70;
69224;PMS1003;56333;51.306;17.056;2023-02-26T06:00:08;5.30;2.60;
69224;PMS1003;56333;51.306;17.056;2023-02-26T06:01:39;5.20;2.40;
69224;PMS1003;56333;51.306;17.056;2023-02-26T06:03:08;4.60;2.20;
69224;PMS1003;56333;51.306;17.056;2023-02-26T06:04:37;3.50;2.40;
69224;PMS1003;56333;51.306;17.056;2023-02-26T06:06:07;4.10;2.30;
69224;PMS1003;56333;51.306;17.056;2023-02-26T06:07:35;4.70;2.40;
69224;PMS1003;56333;51.306;17.056;2023-02-26T06:09:04;4.70;1.80;
69224;PMS1003;56333;51.306;17.056;2023-02-26T06:10:34;5.30;2.40;
69224;PMS1003;56333;51.306;17.056;2023-02-26T06:12:03;4.50;2.30;
69224;PMS1003;56333;51.306;17.056;2023-02-26T06:13:33;7.20;3.30;
69224;PMS1003;56333;51.306;17.056;2023-02-26T06:15:03;15.90;7.20;
69224;PMS1003;56333;51.306;17.056;2023-02-26T06:16:34;13.40;6.40;
69224;PMS1003;56333;51.306;17.056;2023-02-26T06:18:03;14.70;7.00;
69224;PMS1003;56333;51.306;17.056;2023-02-26T06:19:33;10.00;5.30;
69224;PMS1003;56333;51.306;17.056;2023-02-26T06:21:02;9.70;4.50;
69224;PMS1003;56333;51.306;17.056;2023-02-26T06:22:31;8.50;4.20;
69224;PMS1003;56333;51.306;17.056;2023-02-26T06:24:01;7.20;4.00;
69224;PMS1003;56333;51.306;17.056;2023-02-26T06:25:30;5.10;2.50;
69224;PMS1003;56333;51.306;17.056;2023-02-26T06:27:00;4.60;2.30;
69224;PMS1003;56333;51.306;17.056;2023-02-26T06:28:31;7.10;3.30;
69224;PMS1003;56333;51.306;17.056;2023-02-26T06:30:01;6.20;4.30;
69224;PMS1003;56333;51.306;17.056;2023-02-26T06:31:31;8.50;5.10;
69224;PMS1003;56333;51.306;17.056;2023-02-26T06:33:00;8.50;5.00;
69224;PMS1003;56333;51.306;17.056;2023-02-26T06:34:30;9.50;5.10;
69224;PMS1003;56333;51.306;17.056;2023-02-26T06:35:59;7.10;4.00;
69224;PMS1003;56333;51.306;17.056;2023-02-26T06:37:28;6.70;3.90;
69224;PMS1003;56333;51.306;17.056;2023-02-26T06:38:57;5.90;3.40;
69224;PMS1003;56333;51.306;17.056;2023-02-26T06:40:26;5.00;2.80;
69224;PMS1003;56333;51.306;17.056;2023-02-26T06:41:56;4.90;2.90;
69224;PMS1003;56333;51.306;17.056;2023-02-26T06:43:24;5.40;2.90;
69224;PMS1003;56333;51.306;17.056;2023-02-26T06:44:53;6.00;3.00;
69224;PMS1003;56333;51.306;17.056;2023-02-26T06:46:23;8.00;4.30;
69224;PMS1003;56333;51.306;17.056;2023-02-26T06:47:56;7.70;4.40;
69224;PMS1003;56333;51.306;17.056;2023-02-26T06:49:25;6.00;3.50;
69224;PMS1003;56333;51.306;17.056;2023-02-26T06:50:54;10.20;4.90;
69224;PMS1003;56333;51.306;17.056;2023-02-26T06:52:23;7.60;4.70;
69224;PMS1003;56333;51.306;17.056;2023-02-26T06:53:52;9.20;4.70;
69224;PMS1003;56333;51.306;17.056;2023-02-26T06:55:21;8.80;4.80;
69224;PMS1003;56333;51.306;17.056;2023-02-26T06:56:52;11.70;5.70;
69224;PMS1003;56333;51.306;17.056;2023-02-26T06:58:22;9.90;5.20;
69224;PMS1003;56333;51.306;17.056;2023-02-26T06:59:51;8.50;4.30;
69224;PMS1003;56333;51.306;17.056;2023-02-26T07:01:22;12.90;6.90;
69224;PMS1003;56333;51.306;17.056;2023-02-26T07:02:53;8.10;4.80;
69224;PMS1003;56333;51.306;17.056;2023-02-26T07:04:23;10.80;5.70;
69224;PMS1003;56333;51.306;17.056;2023-02-26T07:05:55;11.20;5.70;
69224;PMS1003;56333;51.306;17.056;2023-02-26T07:07:27;10.00;5.60;
69224;PMS1003;56333;51.306;17.056;2023-02-26T07:08:56;12.80;5.60;
69224;PMS1003;56333;51.306;17.056;2023-02-26T07:10:25;12.00;5.90;
69224;PMS1003;56333;51.306;17.056;2023-02-26T07:11:54;12.90;4.80;
69224;PMS1003;56333;51.306;17.056;2023-02-26T07:13:23;12.10;5.30;
69224;PMS1003;56333;51.306;17.056;2023-02-26T07:16:36;20.70;8.40;
69224;PMS1003;56333;51.306;17.056;2023-02-26T07:18:05;14.90;6.60;
69224;PMS1003;56333;51.306;17.056;2023-02-26T07:19:34;16.80;7.50;
69224;PMS1003;56333;51.306;17.056;2023-02-26T07:21:04;16.70;7.80;
69224;PMS1003;56333;51.306;17.056;2023-02-26T07:22:33;8.10;3.90;
69224;PMS1003;56333;51.306;17.056;2023-02-26T07:24:03;13.20;6.20;
69224;PMS1003;56333;51.306;17.056;2023-02-26T07:25:34;10.10;5.50;
69224;PMS1003;56333;51.306;17.056;2023-02-26T07:27:04;11.60;5.80;
69224;PMS1003;56333;51.306;17.056;2023-02-26T07:28:33;6.70;3.40;
69224;PMS1003;56333;51.306;17.056;2023-02-26T07:30:04;6.90;3.30;
69224;PMS1003;56333;51.306;17.056;2023-02-26T07:31:35;11.60;5.30;
69224;PMS1003;56333;51.306;17.056;2023-02-26T07:33:05;7.50;3.60;
69224;PMS1003;56333;51.306;17.056;2023-02-26T07:34:34;6.20;3.40;
69224;PMS1003;56333;51.306;17.056;2023-02-26T07:36:06;7.60;3.90;
69224;PMS1003;56333;51.306;17.056;2023-02-26T07:37:40;6.10;2.90;
69224;PMS1003;56333;51.306;17.056;2023-02-26T07:39:11;6.60;3.10;
69224;PMS1003;56333;51.306;17.056;2023-02-26T07:40:41;8.50;4.10;
69224;PMS1003;56333;51.306;17.056;2023-02-26T07:42:11;11.50;6.30;
69224;PMS1003;56333;51.306;17.056;2023-02-26T07:45:11;8.10;4.00;
69224;PMS1003;56333;51.306;17.056;2023-02-26T07:46:44;7.40;3.20;
69224;PMS1003;56333;51.306;17.056;2023-02-26T07:48:14;6.20;3.00;
69224;PMS1003;56333;51.306;17.056;2023-02-26T07:49:45;10.30;4.60;
69224;PMS1003;56333;51.306;17.056;2023-02-26T07:51:15;15.70;6.70;
69224;PMS1003;56333;51.306;17.056;2023-02-26T07:52:45;10.50;5.60;
69224;PMS1003;56333;51.306;17.056;2023-02-26T07:54:15;14.30;7.60;
69224;PMS1003;56333;51.306;17.056;2023-02-26T07:57:28;11.10;6.40;
69224;PMS1003;56333;51.306;17.056;2023-02-26T07:58:58;24.80;15.10;
69224;PMS1003;56333;51.306;17.056;2023-02-26T08:00:31;15.40;7.40;
69224;PMS1003;56333;51.306;17.056;2023-02-26T08:02:18;12.00;6.70;
69224;PMS1003;56333;51.306;17.056;2023-02-26T08:03:53;21.80;12.70;
69224;PMS1003;56333;51.306;17.056;2023-02-26T08:05:26;71.90;48.70;
69224;PMS1003;56333;51.306;17.056;2023-02-26T08:06:56;19.40;13.10;
69224;PMS1003;56333;51.306;17.056;2023-02-26T08:08:28;35.30;20.90;
69224;PMS1003;56333;51.306;17.056;2023-02-26T08:09:58;39.10;26.40;
69224;PMS1003;56333;51.306;17.056;2023-02-26T08:11:28;18.30;11.70;
69224;PMS1003;56333;51.306;17.056;2023-02-26T08:13:03;24.70;11.10;
69224;PMS1003;56333;51.306;17.056;2023-02-26T08:14:33;22.40;12.20;
69224;PMS1003;56333;51.306;17.056;2023-02-26T08:16:09;30.10;15.30;
69224;PMS1003;56333;51.306;17.056;2023-02-26T08:17:39;12.00;6.20;
69224;PMS1003;56333;51.306;17.056;2023-02-26T08:20:39;16.70;8.40;
69224;PMS1003;56333;51.306;17.056;2023-02-26T08:22:10;13.70;7.10;
69224;PMS1003;56333;51.306;17.056;2023-02-26T08:23:42;12.10;7.10;
69224;PMS1003;56333;51.306;17.056;2023-02-26T08:25:17;14.10;6.40;
69224;PMS1003;56333;51.306;17.056;2023-02-26T08:26:48;11.70;5.30;
69224;PMS1003;56333;51.306;17.056;2023-02-26T08:28:19;7.30;3.60;
69224;PMS1003;56333;51.306;17.056;2023-02-26T08:29:50;10.10;4.80;
69224;PMS1003;56333;51.306;17.056;2023-02-26T08:31:23;10.80;5.50;
69224;PMS1003;56333;51.306;17.056;2023-02-26T08:32:54;6.50;3.70;
69224;PMS1003;56333;51.306;17.056;2023-02-26T08:35:55;10.50;5.20;
69224;PMS1003;56333;51.306;17.056;2023-02-26T08:37:27;9.70;5.10;
69224;PMS1003;56333;51.306;17.056;2023-02-26T08:38:57;11.40;5.50;
69224;PMS1003;56333;51.306;17.056;2023-02-26T08:40:26;9.80;5.40;
69224;PMS1003;56333;51.306;17.056;2023-02-26T08:41:58;12.40;6.50;
69224;PMS1003;56333;51.306;17.056;2023-02-26T08:43:28;12.50;7.40;
69224;PMS1003;56333;51.306;17.056;2023-02-26T08:44:58;9.00;5.20;
69224;PMS1003;56333;51.306;17.056;2023-02-26T08:46:29;9.10;3.90;
69224;PMS1003;56333;51.306;17.056;2023-02-26T08:47:59;7.30;4.10;
69224;PMS1003;56333;51.306;17.056;2023-02-26T08:49:29;7.60;4.50;
69224;PMS1003;56333;51.306;17.056;2023-02-26T08:50:59;10.30;5.30;
69224;PMS1003;56333;51.306;17.056;2023-02-26T08:52:28;8.10;4.60;
69224;PMS1003;56333;51.306;17.056;2023-02-26T08:53:57;7.50;4.00;
69224;PMS1003;56333;51.306;17.056;2023-02-26T08:55:26;9.90;6.00;
69224;PMS1003;56333;51.306;17.056;2023-02-26T08:57:04;9.90;5.30;
69224;PMS1003;56333;51.306;17.056;2023-02-26T08:58:33;8.60;4.40;
69224;PMS1003;56333;51.306;17.056;2023-02-26T09:00:17;10.50;5.20;
69224;PMS1003;56333;51.306;17.056;2023-02-26T09:01:52;15.50;8.60;
69224;PMS1003;56333;51.306;17.056;2023-02-26T09:03:22;11.80;6.20;
69224;PMS1003;56333;51.306;17.056;2023-02-26T09:04:56;14.10;6.30;
69224;PMS1003;56333;51.306;17.056;2023-02-26T09:06:28;12.00;5.80;
69224;PMS1003;56333;51.306;17.056;2023-02-26T09:08:04;10.40;5.30;
69224;PMS1003;56333;51.306;17.056;2023-02-26T09:09:34;8.70;4.50;
69224;PMS1003;56333;51.306;17.056;2023-02-26T09:11:04;23.60;12.70;
69224;PMS1003;56333;51.306;17.056;2023-02-26T09:12:33;14.40;8.30;
69224;PMS1003;56333;51.306;17.056;2023-02-26T09:14:03;11.70;6.90;
69224;PMS1003;56333;51.306;17.056;2023-02-26T09:15:33;9.00;5.10;
69224;PMS1003;56333;51.306;17.056;2023-02-26T09:17:03;11.70;7.00;
69224;PMS1003;56333;51.306;17.056;2023-02-26T09:18:33;30.20;17.70;
69224;PMS1003;56333;51.306;17.056;2023-02-26T09:20:04;8.40;4.70;
69224;PMS1003;56333;51.306;17.056;2023-02-26T09:21:35;11.60;7.00;
69224;PMS1003;56333;51.306;17.056;2023-02-26T09:23:04;12.50;7.50;
69224;PMS1003;56333;51.306;17.056;2023-02-26T09:24:33;29.60;18.70;
69224;PMS1003;56333;51.306;17.056;2023-02-26T09:26:03;14.70;9.30;
69224;PMS1003;56333;51.306;17.056;2023-02-26T09:27:34;18.80;12.10;
69224;PMS1003;56333;51.306;17.056;2023-02-26T09:29:04;13.80;8.40;
69224;PMS1003;56333;51.306;17.056;2023-02-26T09:30:33;16.20;9.80;
69224;PMS1003;56333;51.306;17.056;2023-02-26T09:32:04;14.10;9.10;
69224;PMS1003;56333;51.306;17.056;2023-02-26T09:33:33;8.10;4.70;
69224;PMS1003;56333;51.306;17.056;2023-02-26T09:35:03;7.00;4.20;
69224;PMS1003;56333;51.306;17.056;2023-02-26T09:36:33;7.60;4.30;
69224;PMS1003;56333;51.306;17.056;2023-02-26T09:38:03;10.90;7.00;
69224;PMS1003;56333;51.306;17.056;2023-02-26T09:39:34;8.30;4.50;
69224;PMS1003;56333;51.306;17.056;2023-02-26T09:41:07;8.30;5.10;
69224;PMS1003;56333;51.306;17.056;2023-02-26T09:43:06;9.30;5.40;